createdAt,value
2023-03-18T00:00:10.200Z,15.80
2023-03-18T00:02:39.048Z,15.80
2023-03-18T00:05:07.691Z,15.70
2023-03-18T00:07:36.155Z,15.70
2023-03-18T00:10:05.048Z,15.70
2023-03-18T00:12:33.053Z,15.80
2023-03-18T00:15:00.857Z,15.70
2023-03-18T00:17:27.896Z,15.70
2023-03-18T00:19:55.131Z,15.80
2023-03-18T00:22:22.656Z,15.70
2023-03-18T00:24:49.520Z,15.80
2023-03-18T00:27:16.567Z,15.80
2023-03-18T00:29:43.755Z,15.70
2023-03-18T00:32:11.140Z,15.70
2023-03-18T00:34:37.952Z,15.70
2023-03-18T00:37:04.995Z,15.70
2023-03-18T00:39:33.065Z,15.70
2023-03-18T00:42:08.072Z,15.70
2023-03-18T00:44:34.897Z,15.70
2023-03-18T00:47:01.795Z,15.70
2023-03-18T00:49:28.501Z,15.70
2023-03-18T00:51:55.360Z,15.70
2023-03-18T00:54:22.549Z,15.70
2023-03-18T00:56:49.588Z,15.70
2023-03-18T00:59:16.709Z,15.70
2023-03-18T01:01:44.408Z,15.70
2023-03-18T01:04:11.454Z,15.70
2023-03-18T01:06:39.069Z,15.70
2023-03-18T01:09:10.524Z,15.70
2023-03-18T01:11:39.020Z,15.70
2023-03-18T01:14:06.173Z,15.70
2023-03-18T01:16:32.982Z,15.70
2023-03-18T01:18:59.973Z,15.70
2023-03-18T01:21:26.761Z,15.70
2023-03-18T01:23:56.954Z,15.70
2023-03-18T01:26:26.201Z,15.70
2023-03-18T01:28:54.733Z,15.70
2023-03-18T01:31:22.085Z,15.70
2023-03-18T01:33:48.865Z,15.70
2023-03-18T01:36:17.438Z,15.70
2023-03-18T01:38:49.488Z,15.70
2023-03-18T01:41:17.233Z,15.60
2023-03-18T01:43:44.201Z,15.70
2023-03-18T01:46:30.489Z,15.60
2023-03-18T01:48:57.946Z,15.70
2023-03-18T01:51:26.767Z,15.60
2023-03-18T01:53:54.374Z,15.60
2023-03-18T01:56:22.148Z,15.60
2023-03-18T01:58:55.310Z,15.60
2023-03-18T02:01:28.782Z,15.60
2023-03-18T02:03:57.411Z,15.60
2023-03-18T02:06:25.491Z,15.60
2023-03-18T02:09:00.432Z,15.60
2023-03-18T02:11:38.250Z,15.60
2023-03-18T02:14:06.968Z,15.60
2023-03-18T02:16:39.988Z,15.60
2023-03-18T02:19:36.721Z,15.60
2023-03-18T02:22:25.060Z,15.60
2023-03-18T02:24:59.956Z,15.60
2023-03-18T02:27:30.872Z,15.60
2023-03-18T02:30:02.716Z,15.60
2023-03-18T02:32:35.324Z,15.60
2023-03-18T02:35:07.156Z,15.50
2023-03-18T02:37:35.503Z,15.60
2023-03-18T02:40:23.578Z,15.60
2023-03-18T02:42:51.834Z,15.50
2023-03-18T02:45:35.456Z,15.50
2023-03-18T02:48:17.672Z,15.60
2023-03-18T02:50:45.461Z,15.60
2023-03-18T02:53:13.632Z,15.60
2023-03-18T02:55:42.476Z,15.60
2023-03-18T02:58:09.529Z,15.50
2023-03-18T03:00:37.740Z,15.60
2023-03-18T03:03:05.200Z,15.50
2023-03-18T03:05:34.784Z,15.50
2023-03-18T03:08:02.510Z,15.50
2023-03-18T03:10:32.841Z,15.50
2023-03-18T03:13:00.195Z,15.50
2023-03-18T03:15:27.141Z,15.50
2023-03-18T03:17:57.722Z,15.50
2023-03-18T03:20:24.891Z,15.50
2023-03-18T03:22:51.745Z,15.50
2023-03-18T03:25:19.359Z,15.50
2023-03-18T03:27:46.153Z,15.50
2023-03-18T03:30:14.114Z,15.50
2023-03-18T03:32:42.572Z,15.50
2023-03-18T03:35:13.989Z,15.50
2023-03-18T03:37:42.017Z,15.50
2023-03-18T03:40:11.232Z,15.50
2023-03-18T03:42:38.411Z,15.50
2023-03-18T03:45:07.475Z,15.50
2023-03-18T03:47:34.286Z,15.50
2023-03-18T03:50:01.274Z,15.50
2023-03-18T03:52:28.721Z,15.40
2023-03-18T03:55:00.611Z,15.40
2023-03-18T03:57:28.338Z,15.40
2023-03-18T03:59:56.295Z,15.50
2023-03-18T04:02:42.057Z,15.50
2023-03-18T04:05:11.503Z,15.40
2023-03-18T04:07:38.963Z,15.40
2023-03-18T04:10:06.681Z,15.40
2023-03-18T04:12:33.573Z,15.40
2023-03-18T04:15:01.683Z,15.40
2023-03-18T04:17:28.543Z,15.40
2023-03-18T04:19:55.574Z,15.40
2023-03-18T04:22:28.084Z,15.40
2023-03-18T04:24:54.795Z,15.40
2023-03-18T04:27:22.566Z,15.40
2023-03-18T04:29:50.200Z,15.40
2023-03-18T04:32:17.669Z,15.40
2023-03-18T04:34:44.668Z,15.40
2023-03-18T04:37:14.127Z,15.40
2023-03-18T04:39:42.960Z,15.40
2023-03-18T04:42:10.983Z,15.40
2023-03-18T04:44:37.738Z,15.40
2023-03-18T04:47:05.248Z,15.40
2023-03-18T04:49:32.160Z,15.40
2023-03-18T04:52:02.205Z,15.30
2023-03-18T04:54:31.839Z,15.30
2023-03-18T04:57:02.260Z,15.40
2023-03-18T04:59:31.896Z,15.30
2023-03-18T05:02:04.758Z,15.30
2023-03-18T05:04:33.759Z,15.30
2023-03-18T05:07:01.224Z,15.30
2023-03-18T05:09:34.215Z,15.40
2023-03-18T05:12:01.391Z,15.30
2023-03-18T05:14:32.927Z,15.30
2023-03-18T05:17:00.543Z,15.30
2023-03-18T05:19:28.912Z,15.30
2023-03-18T05:22:11.630Z,15.30
2023-03-18T05:24:40.237Z,15.30
2023-03-18T05:27:07.790Z,15.30
2023-03-18T05:29:40.287Z,15.30
2023-03-18T05:32:20.290Z,15.30
2023-03-18T05:34:52.683Z,15.30
2023-03-18T05:37:19.479Z,15.30
2023-03-18T05:39:56.927Z,15.30
2023-03-18T05:42:24.475Z,15.30
2023-03-18T05:44:51.642Z,15.30
2023-03-18T05:47:21.818Z,15.30
2023-03-18T05:49:59.274Z,15.30
2023-03-18T05:52:28.262Z,15.20
2023-03-18T05:54:59.001Z,15.30
2023-03-18T05:57:30.380Z,15.30
2023-03-18T06:00:01.545Z,15.20
2023-03-18T06:02:32.722Z,15.20
2023-03-18T06:05:00.085Z,15.20
2023-03-18T06:07:27.510Z,15.20
2023-03-18T06:09:54.259Z,15.20
2023-03-18T06:12:23.891Z,15.20
2023-03-18T06:14:50.866Z,15.20
2023-03-18T06:17:17.739Z,15.20
2023-03-18T06:19:45.760Z,15.20
2023-03-18T06:22:13.055Z,15.20
2023-03-18T06:24:39.834Z,15.20
2023-03-18T06:27:06.907Z,15.20
2023-03-18T06:29:35.761Z,15.20
2023-03-18T06:32:08.652Z,15.20
2023-03-18T06:34:36.219Z,15.20
2023-03-18T06:37:04.793Z,15.20
2023-03-18T06:39:34.692Z,15.20
2023-03-18T06:42:04.886Z,15.20
2023-03-18T06:44:35.362Z,15.20
2023-03-18T06:47:11.982Z,15.20
2023-03-18T06:49:44.754Z,15.20
2023-03-18T06:52:18.990Z,15.20
2023-03-18T06:54:47.652Z,15.20
2023-03-18T06:57:16.346Z,15.20
2023-03-18T06:59:43.130Z,15.20
2023-03-18T07:02:10.783Z,15.20
2023-03-18T07:04:37.727Z,15.20
2023-03-18T07:07:05.886Z,15.30
2023-03-18T07:09:33.430Z,15.30
2023-03-18T07:12:01.195Z,15.20
2023-03-18T07:14:28.729Z,15.30
2023-03-18T07:16:56.280Z,15.30
2023-03-18T07:19:23.934Z,15.30
2023-03-18T07:21:51.152Z,15.30
2023-03-18T07:24:21.096Z,15.30
2023-03-18T07:26:50.304Z,15.30
2023-03-18T07:29:17.338Z,15.30
2023-03-18T07:31:44.368Z,15.30
2023-03-18T07:34:12.216Z,15.30
2023-03-18T07:36:39.146Z,15.30
2023-03-18T07:39:07.248Z,15.30
2023-03-18T07:41:36.567Z,15.30
2023-03-18T07:44:05.108Z,15.30
2023-03-18T07:46:31.938Z,15.30
2023-03-18T07:48:58.699Z,15.30
2023-03-18T07:51:25.398Z,15.30
2023-03-18T07:53:52.302Z,15.30
2023-03-18T07:56:19.216Z,15.30
2023-03-18T07:58:46.626Z,15.30
2023-03-18T08:01:16.511Z,15.30
2023-03-18T08:03:43.845Z,15.30
2023-03-18T08:06:11.318Z,15.30
2023-03-18T08:08:39.162Z,15.30
2023-03-18T08:11:06.131Z,15.30
2023-03-18T08:13:32.884Z,15.30
2023-03-18T08:15:59.694Z,15.30
2023-03-18T08:18:27.075Z,15.30
2023-03-18T08:20:54.568Z,15.30
2023-03-18T08:23:21.308Z,15.30
2023-03-18T08:25:52.103Z,15.30
2023-03-18T08:28:30.685Z,15.30
2023-03-18T08:30:59.143Z,15.30
2023-03-18T08:33:27.550Z,15.30
2023-03-18T08:35:56.300Z,15.30
2023-03-18T08:38:24.719Z,15.30
2023-03-18T08:40:52.067Z,15.30
2023-03-18T08:43:22.142Z,15.30
2023-03-18T08:45:53.801Z,15.30
2023-03-18T08:48:21.727Z,15.30
2023-03-18T08:50:48.868Z,15.30
2023-03-18T08:53:16.020Z,15.30
2023-03-18T08:55:43.056Z,15.30
2023-03-18T08:58:09.956Z,15.30
2023-03-18T09:00:39.557Z,15.30
2023-03-18T09:03:06.411Z,15.30
2023-03-18T09:05:36.425Z,15.30
2023-03-18T09:08:03.809Z,15.30
2023-03-18T09:10:30.600Z,15.30
2023-03-18T09:12:57.370Z,15.30
2023-03-18T09:15:24.282Z,15.30
2023-03-18T09:18:07.869Z,15.40
2023-03-18T09:20:37.680Z,15.30
2023-03-18T09:23:04.559Z,15.40
2023-03-18T09:25:31.522Z,15.40
2023-03-18T09:27:58.456Z,15.40
2023-03-18T09:30:26.380Z,15.50
2023-03-18T09:32:53.900Z,15.50
2023-03-18T09:35:20.827Z,15.50
2023-03-18T09:37:48.341Z,15.50
2023-03-18T09:40:38.418Z,15.50
2023-03-18T09:43:26.788Z,15.60
2023-03-18T09:46:17.810Z,15.60
2023-03-18T09:48:52.456Z,15.60
2023-03-18T09:51:28.360Z,15.70
2023-03-18T09:54:16.541Z,15.70
2023-03-18T09:56:45.060Z,15.70
2023-03-18T09:59:31.228Z,15.80
2023-03-18T10:01:59.817Z,15.80
2023-03-18T10:04:41.014Z,15.80
2023-03-18T10:07:15.015Z,15.90
2023-03-18T10:09:52.152Z,15.90
2023-03-18T10:12:24.988Z,16.00
2023-03-18T10:14:51.914Z,16.00
2023-03-18T10:17:28.476Z,16.00
2023-03-18T10:19:58.409Z,16.00
2023-03-18T10:22:27.885Z,16.00
2023-03-18T10:25:21.108Z,16.00
2023-03-18T10:28:03.460Z,16.10
2023-03-18T10:30:40.142Z,16.10
2023-03-18T10:33:31.849Z,16.10
2023-03-18T10:36:29.322Z,16.10
2023-03-18T10:38:57.874Z,16.10
2023-03-18T10:41:34.568Z,16.10
2023-03-18T10:44:07.226Z,16.10
2023-03-18T10:46:37.598Z,16.10
2023-03-18T10:49:12.052Z,16.10
2023-03-18T10:51:56.226Z,16.20
2023-03-18T10:54:46.594Z,16.20
2023-03-18T10:57:15.675Z,16.20
2023-03-18T10:59:45.942Z,16.20
2023-03-18T11:02:26.695Z,16.20
2023-03-18T11:05:07.171Z,16.20
2023-03-18T11:07:33.863Z,16.20
2023-03-18T11:10:24.583Z,16.20
2023-03-18T11:12:55.636Z,16.30
2023-03-18T11:15:24.041Z,16.30
2023-03-18T11:17:51.838Z,16.30
2023-03-18T11:20:25.254Z,16.30
2023-03-18T11:22:55.622Z,16.30
2023-03-18T11:25:26.935Z,16.30
2023-03-18T11:28:04.728Z,16.30
2023-03-18T11:30:46.684Z,16.30
2023-03-18T11:33:15.883Z,16.30
2023-03-18T11:35:51.872Z,16.30
2023-03-18T11:38:38.979Z,16.30
2023-03-18T11:41:17.850Z,16.30
2023-03-18T11:44:01.965Z,16.30
2023-03-18T11:46:36.176Z,16.30
2023-03-18T11:49:03.984Z,16.30
2023-03-18T11:51:42.150Z,16.30
2023-03-18T11:54:22.968Z,16.30
2023-03-18T11:56:58.614Z,16.40
2023-03-18T11:59:28.858Z,16.40
2023-03-18T12:02:14.192Z,16.40
2023-03-18T12:05:03.342Z,16.40
2023-03-18T12:08:10.564Z,16.40
2023-03-18T12:10:48.198Z,16.40
2023-03-18T12:13:19.523Z,16.40
2023-03-18T12:16:03.686Z,16.40
2023-03-18T12:18:45.783Z,16.40
2023-03-18T12:21:41.580Z,16.40
2023-03-18T12:24:42.676Z,16.40
2023-03-18T12:27:41.572Z,16.40
2023-03-18T12:30:26.321Z,16.40
2023-03-18T12:33:05.026Z,16.40
2023-03-18T12:35:49.410Z,16.40
2023-03-18T12:38:38.350Z,16.40
2023-03-18T12:41:27.875Z,16.40
2023-03-18T12:44:22.798Z,16.40
2023-03-18T12:46:54.716Z,16.40
2023-03-18T12:49:29.941Z,16.40
2023-03-18T12:52:14.839Z,16.40
2023-03-18T12:54:49.060Z,16.40
2023-03-18T12:57:31.638Z,16.40
2023-03-18T13:00:03.959Z,16.40
2023-03-18T13:02:52.842Z,16.40
2023-03-18T13:05:41.451Z,16.40
2023-03-18T13:08:46.889Z,16.40
2023-03-18T13:11:24.363Z,16.40
2023-03-18T13:13:56.343Z,16.40
2023-03-18T13:16:25.410Z,16.40
2023-03-18T13:18:56.029Z,16.40
2023-03-18T13:21:29.502Z,16.40
2023-03-18T13:23:56.296Z,16.40
2023-03-18T13:26:43.952Z,16.40
2023-03-18T13:29:44.100Z,16.40
2023-03-18T13:32:38.753Z,16.40
2023-03-18T13:35:27.400Z,16.40
2023-03-18T13:38:15.865Z,16.40
2023-03-18T13:41:14.824Z,16.40
2023-03-18T13:43:46.229Z,16.40
2023-03-18T13:46:22.790Z,16.40
2023-03-18T13:48:55.956Z,16.40
2023-03-18T13:51:25.383Z,16.40
2023-03-18T13:53:58.611Z,16.40
2023-03-18T13:56:43.412Z,16.40
2023-03-18T13:59:33.072Z,16.40
2023-03-18T14:02:31.831Z,16.40
2023-03-18T14:04:59.902Z,16.40
2023-03-18T14:07:28.460Z,16.40
2023-03-18T14:11:17.655Z,16.40
2023-03-18T14:17:27.595Z,16.40
2023-03-18T14:21:00.690Z,16.40
2023-03-18T14:24:40.708Z,16.40
2023-03-18T14:27:28.258Z,16.40
2023-03-18T14:32:27.797Z,16.40
2023-03-18T14:34:40.821Z,16.40
2023-03-18T14:41:25.398Z,16.40
2023-03-18T14:44:53.160Z,16.40
2023-03-18T14:47:38.842Z,16.40
2023-03-18T14:50:26.341Z,16.40
2023-03-18T14:53:25.157Z,16.50
2023-03-18T14:56:39.853Z,16.50
2023-03-18T15:02:32.820Z,16.50
2023-03-18T15:09:22.468Z,16.50
2023-03-18T15:11:49.902Z,16.50
2023-03-18T15:14:30.093Z,16.50
2023-03-18T15:16:59.690Z,16.60
2023-03-18T15:19:28.498Z,16.60
2023-03-18T15:22:00.839Z,16.60
2023-03-18T15:24:27.771Z,16.60
2023-03-18T15:27:00.127Z,16.60
2023-03-18T15:29:31.356Z,16.60
2023-03-18T15:32:16.609Z,16.70
2023-03-18T15:34:45.990Z,16.70
2023-03-18T15:37:30.688Z,16.70
2023-03-18T15:39:58.922Z,16.70
2023-03-18T15:42:28.224Z,16.70
2023-03-18T15:45:00.981Z,16.70
2023-03-18T15:47:32.301Z,16.70
2023-03-18T15:50:24.044Z,16.70
2023-03-18T15:52:50.767Z,16.80
2023-03-18T15:55:29.374Z,16.70
2023-03-18T15:57:58.117Z,16.70
2023-03-18T16:00:25.619Z,16.70
2023-03-18T16:02:53.587Z,16.80
2023-03-18T16:05:24.784Z,16.80
2023-03-18T16:07:52.857Z,16.80
2023-03-18T16:10:23.058Z,16.80
2023-03-18T16:13:03.990Z,16.80
2023-03-18T16:15:31.910Z,16.80
2023-03-18T16:17:58.879Z,16.80
2023-03-18T16:20:31.485Z,16.80
2023-03-18T16:22:59.611Z,16.80
2023-03-18T16:25:26.851Z,16.80
2023-03-18T16:27:59.772Z,16.80
2023-03-18T16:30:29.586Z,16.80
2023-03-18T16:32:56.850Z,16.80
2023-03-18T16:35:34.363Z,16.80
2023-03-18T16:38:01.707Z,16.80
2023-03-18T16:40:30.736Z,16.80
2023-03-18T16:42:57.763Z,16.80
2023-03-18T16:45:30.691Z,16.80
2023-03-18T16:48:06.903Z,16.80
2023-03-18T16:50:37.113Z,16.80
2023-03-18T16:53:11.266Z,16.80
2023-03-18T16:55:37.988Z,16.80
2023-03-18T16:58:04.729Z,16.80
2023-03-18T17:00:33.046Z,16.80
2023-03-18T17:03:01.102Z,16.90
2023-03-18T17:05:28.396Z,16.80
2023-03-18T17:07:55.853Z,16.80
2023-03-18T17:10:25.808Z,16.80
2023-03-18T17:12:59.693Z,16.80
2023-03-18T17:15:29.562Z,16.80
2023-03-18T17:17:59.518Z,16.80
2023-03-18T17:20:29.160Z,16.80
2023-03-18T17:22:55.969Z,16.80
2023-03-18T17:25:27.093Z,16.80
2023-03-18T17:27:59.523Z,16.80
2023-03-18T17:30:35.674Z,16.80
2023-03-18T17:33:04.305Z,16.80
2023-03-18T17:35:31.907Z,16.80
2023-03-18T17:37:59.315Z,16.80
2023-03-18T17:40:29.456Z,16.80
2023-03-18T17:42:56.481Z,16.80
2023-03-18T17:45:25.909Z,16.80
2023-03-18T17:47:53.742Z,16.80
2023-03-18T17:50:20.894Z,16.80
2023-03-18T17:52:51.433Z,16.80
2023-03-18T17:55:23.438Z,16.80
2023-03-18T17:57:50.745Z,16.90
2023-03-18T18:00:26.374Z,16.90
2023-03-18T18:02:54.791Z,16.90
2023-03-18T18:05:22.979Z,16.90
2023-03-18T18:07:51.325Z,16.90
2023-03-18T18:10:20.445Z,16.90
2023-03-18T18:12:49.859Z,16.90
2023-03-18T18:15:18.773Z,16.90
2023-03-18T18:17:47.189Z,16.90
2023-03-18T18:20:16.132Z,16.90
2023-03-18T18:22:49.553Z,16.90
2023-03-18T18:25:19.728Z,16.90
2023-03-18T18:27:47.943Z,16.90
2023-03-18T18:30:28.782Z,16.90
2023-03-18T18:38:48.362Z,16.90
2023-03-18T18:41:15.144Z,16.90
2023-03-18T18:43:42.067Z,16.90
2023-03-18T18:46:14.775Z,16.90
2023-03-18T18:48:43.652Z,16.90
2023-03-18T18:51:18.967Z,17.00
2023-03-18T18:53:46.501Z,17.00
2023-03-18T18:56:22.048Z,17.00
2023-03-18T18:58:50.719Z,17.00
2023-03-18T19:01:18.556Z,17.00
2023-03-18T19:03:45.499Z,17.00
2023-03-18T19:06:31.678Z,17.00
2023-03-18T19:09:00.778Z,17.00
2023-03-18T19:11:28.316Z,17.00
2023-03-18T19:14:05.363Z,17.00
2023-03-18T19:16:34.629Z,17.00
2023-03-18T19:19:02.875Z,17.00
2023-03-18T19:21:29.609Z,17.00
2023-03-18T19:23:58.277Z,17.00
2023-03-18T19:26:25.202Z,17.00
2023-03-18T19:28:58.891Z,17.00
2023-03-18T19:31:30.293Z,17.00
2023-03-18T19:33:59.402Z,17.00
2023-03-18T19:36:31.618Z,17.00
2023-03-18T19:39:00.407Z,17.00
2023-03-18T19:41:27.239Z,17.00
2023-03-18T19:43:59.602Z,17.00
2023-03-18T19:46:37.058Z,17.00
2023-03-18T19:49:20.048Z,17.00
2023-03-18T19:51:46.967Z,17.00
2023-03-18T19:54:36.762Z,17.10
2023-03-18T19:57:06.778Z,17.10
2023-03-18T19:59:39.119Z,17.20
2023-03-18T20:02:35.554Z,17.30
2023-03-18T20:05:14.188Z,17.40
2023-03-18T20:07:40.936Z,17.50
2023-03-18T20:10:10.813Z,17.70
2023-03-18T20:12:40.200Z,17.90
2023-03-18T20:15:20.011Z,18.10
2023-03-18T20:17:48.860Z,18.30
2023-03-18T20:20:21.061Z,18.50
2023-03-18T20:22:52.845Z,18.70
2023-03-18T20:25:42.280Z,19.00
2023-03-18T20:28:16.381Z,19.20
2023-03-18T20:30:43.781Z,19.30
2023-03-18T20:33:10.736Z,19.50
2023-03-18T20:35:41.000Z,19.60
2023-03-18T20:38:16.447Z,19.70
2023-03-18T20:40:47.430Z,19.90
2023-03-18T20:43:16.172Z,19.90
2023-03-18T20:45:43.418Z,20.00
2023-03-18T20:48:10.428Z,20.10
2023-03-18T20:50:37.326Z,20.20
2023-03-18T20:53:07.789Z,20.20
2023-03-18T20:55:36.000Z,20.30
2023-03-18T20:58:03.982Z,20.30
2023-03-18T21:00:33.032Z,20.30
2023-03-18T21:03:02.970Z,20.40
2023-03-18T21:05:29.742Z,20.40
2023-03-18T21:07:56.577Z,20.40
2023-03-18T21:10:26.346Z,20.40
2023-03-18T21:12:53.834Z,20.50
2023-03-18T21:15:26.586Z,20.50
2023-03-18T21:17:53.978Z,20.60
2023-03-18T21:20:26.394Z,20.60
2023-03-18T21:22:54.416Z,20.60
2023-03-18T21:25:26.769Z,20.70
2023-03-18T21:27:53.785Z,20.70
2023-03-18T21:30:40.635Z,20.70
2023-03-18T21:33:46.761Z,20.80
2023-03-18T21:36:13.501Z,20.80
2023-03-18T21:38:40.375Z,20.80
2023-03-18T21:41:28.301Z,20.80
2023-03-18T21:43:55.551Z,20.80
2023-03-18T21:46:28.797Z,20.80
2023-03-18T21:48:55.936Z,20.90
2023-03-18T21:51:41.173Z,20.90
2023-03-18T21:54:18.451Z,20.90
2023-03-18T21:56:45.413Z,20.90
2023-03-18T21:59:12.105Z,20.90
2023-03-18T22:01:39.068Z,20.90
2023-03-18T22:04:06.064Z,20.90
2023-03-18T22:06:33.360Z,20.90
2023-03-18T22:09:00.139Z,20.90
2023-03-18T22:11:27.996Z,20.90
2023-03-18T22:13:55.169Z,20.80
2023-03-18T22:16:22.064Z,20.80
2023-03-18T22:18:48.819Z,20.80
2023-03-18T22:21:27.410Z,20.80
2023-03-18T22:23:54.537Z,20.80
2023-03-18T22:26:21.761Z,20.80
2023-03-18T22:28:49.611Z,20.70
2023-03-18T22:31:22.763Z,20.70
2023-03-18T22:33:49.776Z,20.70
2023-03-18T22:36:17.641Z,20.70
2023-03-18T22:38:45.018Z,20.70
2023-03-18T22:41:25.124Z,20.60
2023-03-18T22:43:51.996Z,20.60
2023-03-18T22:46:18.905Z,20.60
2023-03-18T22:48:46.008Z,20.50
2023-03-18T22:51:29.335Z,20.50
2023-03-18T22:53:56.094Z,20.50
2023-03-18T22:56:23.384Z,20.50
2023-03-18T22:58:50.397Z,20.40
2023-03-18T23:01:20.355Z,20.40
2023-03-18T23:03:47.542Z,20.40
2023-03-18T23:06:20.861Z,20.30
2023-03-18T23:08:47.881Z,20.30
2023-03-18T23:11:15.897Z,20.30
2023-03-18T23:13:46.241Z,20.30
2023-03-18T23:16:18.387Z,20.30
2023-03-18T23:18:45.433Z,20.30
2023-03-18T23:21:16.842Z,20.20
2023-03-18T23:23:43.709Z,20.20
2023-03-18T23:26:11.296Z,20.20
2023-03-18T23:28:44.572Z,20.10
2023-03-18T23:31:12.824Z,20.10
2023-03-18T23:33:39.801Z,20.10
2023-03-18T23:36:07.483Z,20.00
2023-03-18T23:38:34.407Z,20.00
2023-03-18T23:41:01.340Z,20.00
2023-03-18T23:43:28.062Z,19.90
2023-03-18T23:45:54.861Z,19.90
2023-03-18T23:48:21.631Z,19.90
2023-03-18T23:50:48.359Z,19.90
2023-03-18T23:53:15.095Z,19.80
2023-03-18T23:55:41.856Z,19.80
2023-03-18T23:58:08.616Z,19.80
